Accueil
METAR-TAF:

METAR-TAF

Aéroports :

Millinocket Municipal Airport

Millinocket, Maine, États-Unis

latitude: 45-38-52N, longitude: 068-41-31W, altitude: 124 m

Observation

Le bulletin a été fait il y a 12 minutes, à 23:53 UTC
Vent 4 kt de nord-est
Température 11°C
Humidité 62%
Pression 1016 hPa
Visibilité: 16.1 km
Quelques nuages à une hauteur de 6000 ft

METAR: KMLT 232353Z AUTO 04004KT 10SM FEW060 11/04 A2999 RMK AO2 SLP163 60000 T01110039 10150 20111 53027

Heure: 20:05 (00:05 UTC)


TAF: absent

Observations et prévisions météorologiques de plus de 4000 aéroports (messages METAR et TAF).

Les stations disponibles sont représentées par des disques jaunes et rouges sur la carte.

Passer la souris dessus pour voir le nom de la station.

Cliquer dessus pour voir les observations et prévisions météorologiques.

Pour changer de carte: cliquez sur les boutons verts avec une croix noire pour zoomer, sur le bouton vert avec un tiret pour effectuer un zoom arrière, ou sur les flèches vertes pour les cartes adjacentes.


METAR-TAF: